createdAt,value
2019-05-03T00:02:01.984Z,8.80
2019-05-03T00:04:31.449Z,8.90
2019-05-03T00:06:59.305Z,8.43
2019-05-03T00:09:27.024Z,9.00
2019-05-03T00:11:54.753Z,9.73
2019-05-03T00:14:22.768Z,8.70
2019-05-03T00:16:52.237Z,10.37
2019-05-03T00:19:21.853Z,10.63
2019-05-03T00:21:49.565Z,9.47
2019-05-03T00:24:17.265Z,11.47
2019-05-03T00:26:44.999Z,12.43
2019-05-03T00:29:12.794Z,10.00
2019-05-03T00:31:42.222Z,12.97
2019-05-03T00:34:13.731Z,10.87
2019-05-03T00:36:45.581Z,9.50
2019-05-03T00:39:24.826Z,10.13
2019-05-03T00:41:52.569Z,9.97
2019-05-03T00:44:22.127Z,10.07
2019-05-03T00:46:51.721Z,9.13
2019-05-03T00:49:19.357Z,9.10
2019-05-03T00:51:47.193Z,11.27
2019-05-03T00:54:14.904Z,9.40
2019-05-03T00:56:44.489Z,9.07
2019-05-03T00:59:12.664Z,9.00
2019-05-03T01:01:42.454Z,8.90
2019-05-03T01:04:11.825Z,10.10
2019-05-03T01:06:39.722Z,8.93
2019-05-03T01:09:13.006Z,11.60
2019-05-03T01:11:41.836Z,9.80
2019-05-03T01:14:11.887Z,8.57
2019-05-03T01:16:39.301Z,9.30
2019-05-03T01:19:07.004Z,9.90
2019-05-03T01:21:34.742Z,11.13
2019-05-03T01:24:02.447Z,10.63
2019-05-03T01:26:31.954Z,10.80
2019-05-03T01:28:59.685Z,9.13
2019-05-03T01:31:27.393Z,9.70
2019-05-03T01:33:55.125Z,9.87
2019-05-03T01:36:23.018Z,12.87
2019-05-03T01:38:52.663Z,8.80
2019-05-03T01:41:21.628Z,11.33
2019-05-03T01:43:49.406Z,11.17
2019-05-03T01:46:17.122Z,11.03
2019-05-03T01:49:06.205Z,10.27
2019-05-03T01:51:45.125Z,9.63
2019-05-03T01:54:12.865Z,8.43
2019-05-03T01:56:49.964Z,8.27
2019-05-03T01:59:10.110Z,8.53
2019-05-03T02:02:03.017Z,9.03
2019-05-03T02:04:36.241Z,8.70
2019-05-03T02:07:03.946Z,11.50
2019-05-03T02:09:32.260Z,10.80
2019-05-03T02:12:01.998Z,11.17
2019-05-03T02:14:31.583Z,10.00
2019-05-03T02:16:59.028Z,9.07
2019-05-03T02:19:26.750Z,9.67
2019-05-03T02:21:54.475Z,8.10
2019-05-03T02:24:22.246Z,7.13
2019-05-03T02:26:49.912Z,11.37
2019-05-03T02:29:17.637Z,7.70
2019-05-03T02:31:45.246Z,8.23
2019-05-03T02:34:12.972Z,7.77
2019-05-03T02:36:42.855Z,9.43
2019-05-03T02:39:13.530Z,8.10
2019-05-03T02:41:41.473Z,9.73
2019-05-03T02:44:09.397Z,11.23
2019-05-03T02:46:52.237Z,9.17
2019-05-03T02:49:37.241Z,10.37
2019-05-03T02:52:06.715Z,8.77
2019-05-03T02:54:35.235Z,8.00
2019-05-03T02:57:05.972Z,8.73
2019-05-03T02:59:34.594Z,7.43
2019-05-03T03:02:02.170Z,10.10
2019-05-03T03:04:29.865Z,8.40
2019-05-03T03:06:58.210Z,7.10
2019-05-03T03:09:26.228Z,11.93
2019-05-03T03:11:55.786Z,7.97
2019-05-03T03:14:25.769Z,9.10
2019-05-03T03:16:55.781Z,8.77
2019-05-03T03:19:22.894Z,9.10
2019-05-03T03:21:51.099Z,8.47
2019-05-03T03:24:19.562Z,9.37
2019-05-03T03:26:47.595Z,7.77
2019-05-03T03:29:16.945Z,7.80
2019-05-03T03:32:22.763Z,9.77
2019-05-03T03:35:20.708Z,7.13
2019-05-03T03:37:48.424Z,7.57
2019-05-03T03:40:16.798Z,7.87
2019-05-03T03:42:45.063Z,7.20
2019-05-03T03:45:12.883Z,7.40
2019-05-03T03:47:40.644Z,8.30
2019-05-03T03:50:09.028Z,7.10
2019-05-03T03:52:37.231Z,8.87
2019-05-03T03:55:06.490Z,9.27
2019-05-03T03:57:35.749Z,8.67
2019-05-03T04:00:05.532Z,9.33
2019-05-03T04:02:35.413Z,6.90
2019-05-03T04:05:05.556Z,8.23
2019-05-03T04:07:35.945Z,7.00
2019-05-03T04:10:02.485Z,6.63
2019-05-03T04:12:30.242Z,6.47
2019-05-03T04:15:10.375Z,6.73
2019-05-03T04:17:46.406Z,8.20
2019-05-03T04:20:16.297Z,8.67
2019-05-03T04:22:45.297Z,8.80
2019-05-03T04:25:15.343Z,7.47
2019-05-03T04:27:45.327Z,5.10
2019-05-03T04:30:12.106Z,6.37
2019-05-03T04:32:39.848Z,6.87
2019-05-03T04:35:07.554Z,7.60
2019-05-03T04:37:35.898Z,7.00
2019-05-03T04:40:06.232Z,6.07
2019-05-03T04:42:35.688Z,10.40
2019-05-03T04:45:05.903Z,6.63
2019-05-03T04:47:35.618Z,5.93
2019-05-03T04:50:05.384Z,7.10
2019-05-03T04:52:32.345Z,5.77
2019-05-03T04:55:00.546Z,5.57
2019-05-03T04:57:40.043Z,5.67
2019-05-03T04:59:57.858Z,8.27
2019-05-03T05:02:26.562Z,9.40
2019-05-03T05:04:55.522Z,5.00
2019-05-03T05:07:25.892Z,22.17
2019-05-03T05:09:55.862Z,5.57
2019-05-03T05:12:24.981Z,5.40
2019-05-03T05:14:52.190Z,5.07
2019-05-03T05:17:31.598Z,5.83
2019-05-03T05:20:08.439Z,4.27
2019-05-03T05:22:36.159Z,8.13
2019-05-03T05:25:07.501Z,6.70
2019-05-03T05:27:49.512Z,5.83
2019-05-03T05:30:14.945Z,6.23
2019-05-03T05:32:42.719Z,5.37
2019-05-03T05:35:10.437Z,6.67
2019-05-03T05:37:38.149Z,7.77
2019-05-03T05:40:06.085Z,6.27
2019-05-03T05:42:35.076Z,4.67
2019-05-03T05:45:04.826Z,7.17
2019-05-03T05:47:46.781Z,7.40
2019-05-03T05:50:25.227Z,5.03
2019-05-03T05:52:52.721Z,4.27
2019-05-03T05:55:38.109Z,5.30
2019-05-03T05:58:15.687Z,5.23
2019-05-03T06:00:49.973Z,9.83
2019-05-03T06:03:17.689Z,5.43
2019-05-03T06:05:45.633Z,5.00
2019-05-03T06:08:30.362Z,8.90
2019-05-03T06:11:05.541Z,5.10
2019-05-03T06:13:37.479Z,6.50
2019-05-03T06:16:15.454Z,5.97
2019-05-03T06:19:17.866Z,7.20
2019-05-03T06:22:05.013Z,10.03
2019-05-03T06:24:37.313Z,7.37
2019-05-03T06:27:20.171Z,6.30
2019-05-03T06:29:49.275Z,5.33
2019-05-03T06:32:30.021Z,8.80
2019-05-03T06:34:57.744Z,4.60
2019-05-03T06:37:27.985Z,3.87
2019-05-03T06:39:55.749Z,4.63
2019-05-03T06:42:25.350Z,7.40
2019-05-03T06:44:54.625Z,5.43
2019-05-03T06:47:22.520Z,6.53
2019-05-03T06:49:50.311Z,6.37
2019-05-03T06:52:19.689Z,8.77
2019-05-03T06:54:47.649Z,4.53
2019-05-03T06:57:16.975Z,5.47
2019-05-03T06:59:49.853Z,3.63
2019-05-03T07:02:28.639Z,4.23
2019-05-03T07:04:56.942Z,3.13
2019-05-03T07:07:44.488Z,4.03
2019-05-03T07:10:40.514Z,3.50
2019-05-03T07:13:08.964Z,7.30
2019-05-03T07:15:36.857Z,5.73
2019-05-03T07:18:05.733Z,4.60
2019-05-03T07:20:47.221Z,3.80
2019-05-03T07:23:15.631Z,3.57
2019-05-03T07:25:44.810Z,3.60
2019-05-03T07:28:14.739Z,4.80
2019-05-03T07:30:42.148Z,5.80
2019-05-03T07:33:15.618Z,7.83
2019-05-03T07:35:44.471Z,7.70
2019-05-03T07:38:12.289Z,4.57
2019-05-03T07:40:40.033Z,5.73
2019-05-03T07:43:07.778Z,7.40
2019-05-03T07:45:35.542Z,8.87
2019-05-03T07:48:04.675Z,7.87
2019-05-03T07:50:33.292Z,6.40
2019-05-03T07:53:01.603Z,6.83
2019-05-03T07:55:47.144Z,5.00
2019-05-03T07:58:18.235Z,6.93
2019-05-03T08:00:47.488Z,4.07
2019-05-03T08:03:15.581Z,4.50
2019-05-03T08:05:45.252Z,9.97
2019-05-03T08:08:14.776Z,4.53
2019-05-03T08:10:44.868Z,5.57
2019-05-03T08:13:12.130Z,4.60
2019-05-03T08:15:39.891Z,3.07
2019-05-03T08:18:07.614Z,3.60
2019-05-03T08:20:35.406Z,6.70
2019-05-03T08:23:05.129Z,4.47
2019-05-03T08:25:32.790Z,7.53
2019-05-03T08:28:00.507Z,3.53
2019-05-03T08:30:37.127Z,5.40
2019-05-03T08:33:24.882Z,3.67
2019-05-03T08:35:52.550Z,2.43
2019-05-03T08:38:20.266Z,5.97
2019-05-03T08:40:48.074Z,4.40
2019-05-03T08:43:15.840Z,3.17
2019-05-03T08:45:44.734Z,7.93
2019-05-03T08:48:14.868Z,4.80
2019-05-03T08:50:42.083Z,6.17
2019-05-03T08:53:09.819Z,5.90
2019-05-03T08:55:37.541Z,2.43
2019-05-03T08:58:05.405Z,2.40
2019-05-03T09:00:35.390Z,2.83
2019-05-03T09:03:05.127Z,1.50
2019-05-03T09:05:32.616Z,2.13
2019-05-03T09:08:00.448Z,4.23
2019-05-03T09:10:35.235Z,6.37
2019-05-03T09:13:14.784Z,3.30
2019-05-03T09:15:44.595Z,9.67
2019-05-03T09:18:15.115Z,1.87
2019-05-03T09:20:41.949Z,2.10
2019-05-03T09:23:09.678Z,4.67
2019-05-03T09:25:37.417Z,3.73
2019-05-03T09:28:05.204Z,1.93
2019-05-03T09:30:32.939Z,2.73
2019-05-03T09:33:00.677Z,1.53
2019-05-03T09:35:32.849Z,1.13
2019-05-03T09:37:58.002Z,2.37
2019-05-03T09:40:25.761Z,5.20
2019-05-03T09:42:55.074Z,1.90
2019-05-03T09:45:50.318Z,2.33
2019-05-03T09:48:18.239Z,1.93
2019-05-03T09:50:46.128Z,4.77
2019-05-03T09:53:16.341Z,2.67
2019-05-03T09:55:44.853Z,2.43
2019-05-03T09:58:12.641Z,3.10
2019-05-03T10:00:40.789Z,1.20
2019-05-03T10:03:08.682Z,3.23
2019-05-03T10:05:36.422Z,2.17
2019-05-03T10:08:05.178Z,3.60
2019-05-03T10:10:52.638Z,3.90
2019-05-03T10:13:23.424Z,1.97
2019-05-03T10:15:50.630Z,2.40
2019-05-03T10:18:19.054Z,1.10
2019-05-03T10:20:46.783Z,2.30
2019-05-03T10:23:38.714Z,4.93
2019-05-03T10:26:06.583Z,3.17
2019-05-03T10:28:34.287Z,3.80
2019-05-03T10:31:04.965Z,1.63
2019-05-03T10:33:37.115Z,3.70
2019-05-03T10:36:05.492Z,3.50
2019-05-03T10:38:33.380Z,1.60
2019-05-03T10:41:01.129Z,3.40
2019-05-03T10:43:28.909Z,2.20
2019-05-03T10:45:56.663Z,4.57
2019-05-03T10:48:31.309Z,4.50
2019-05-03T10:50:59.083Z,2.67
2019-05-03T10:53:34.718Z,3.03
2019-05-03T10:56:22.746Z,4.43
2019-05-03T10:59:13.357Z,1.60
2019-05-03T11:02:15.439Z,1.53
2019-05-03T11:04:44.253Z,2.40
2019-05-03T11:07:14.780Z,4.13
2019-05-03T11:09:49.634Z,5.10
2019-05-03T11:12:14.803Z,7.97
2019-05-03T11:14:42.632Z,3.00
2019-05-03T11:17:12.238Z,2.57
2019-05-03T11:19:42.034Z,2.40
2019-05-03T11:22:10.003Z,2.77
2019-05-03T11:24:39.763Z,2.60
2019-05-03T11:27:13.730Z,2.60
2019-05-03T11:29:45.008Z,3.03
2019-05-03T11:32:37.932Z,1.60
2019-05-03T11:35:18.904Z,3.43
2019-05-03T11:37:53.695Z,1.70
2019-05-03T11:40:28.453Z,3.10
2019-05-03T11:43:15.279Z,4.53
2019-05-03T11:45:49.106Z,5.17
2019-05-03T11:48:25.308Z,4.13
2019-05-03T11:51:10.074Z,3.50
2019-05-03T11:53:51.450Z,2.60
2019-05-03T11:56:24.982Z,3.67
2019-05-03T11:58:58.053Z,5.80
2019-05-03T12:01:36.849Z,2.30
2019-05-03T12:04:05.618Z,2.47
2019-05-03T12:06:36.933Z,2.33
2019-05-03T12:09:05.752Z,2.30
2019-05-03T12:11:35.314Z,1.60
2019-05-03T12:14:12.573Z,2.43
2019-05-03T12:17:10.749Z,2.20
2019-05-03T12:19:17.158Z,2.07
2019-05-03T12:21:42.637Z,2.37
2019-05-03T12:24:11.274Z,1.77
2019-05-03T12:26:43.897Z,2.13
2019-05-03T12:29:08.973Z,1.63
2019-05-03T12:31:40.385Z,4.13
2019-05-03T12:34:06.306Z,2.90
2019-05-03T12:36:38.810Z,3.23
2019-05-03T12:39:05.638Z,18.43
2019-05-03T12:41:33.469Z,15.17
2019-05-03T12:44:01.205Z,4.43
2019-05-03T12:46:28.922Z,3.97
2019-05-03T12:48:56.670Z,5.67
2019-05-03T12:51:25.137Z,1.30
2019-05-03T12:53:55.076Z,5.70
2019-05-03T12:56:30.605Z,4.00
2019-05-03T12:59:07.030Z,12.60
2019-05-03T13:01:52.537Z,1.90
2019-05-03T13:04:24.685Z,1.67
2019-05-03T13:06:59.502Z,3.07
2019-05-03T13:09:27.481Z,3.33
2019-05-03T13:11:58.928Z,2.83
2019-05-03T13:14:25.791Z,4.93
2019-05-03T13:16:55.239Z,4.30
2019-05-03T13:19:23.057Z,3.00
2019-05-03T13:21:50.761Z,2.40
2019-05-03T13:24:23.402Z,4.20
2019-05-03T13:26:48.029Z,4.13
2019-05-03T13:29:15.767Z,3.20
2019-05-03T13:31:55.859Z,2.93
2019-05-03T13:34:13.085Z,3.37
2019-05-03T13:36:40.833Z,1.93
2019-05-03T13:39:14.086Z,4.60
2019-05-03T13:41:38.089Z,4.37
2019-05-03T13:44:05.817Z,3.47
2019-05-03T13:46:35.287Z,2.27
2019-05-03T13:49:05.274Z,4.10
2019-05-03T13:51:32.905Z,7.73
2019-05-03T13:54:00.630Z,4.63
2019-05-03T13:56:28.428Z,1.87
2019-05-03T13:58:56.173Z,2.17
2019-05-03T14:01:25.188Z,3.93
2019-05-03T14:03:54.560Z,2.00
2019-05-03T14:06:24.153Z,2.97
2019-05-03T14:08:54.678Z,5.40
2019-05-03T14:11:22.179Z,2.30
2019-05-03T14:13:50.025Z,6.63
2019-05-03T14:16:17.881Z,2.00
2019-05-03T14:18:47.634Z,4.23
2019-05-03T14:21:26.726Z,3.07
2019-05-03T14:24:10.018Z,2.20
2019-05-03T14:26:38.434Z,2.57
2019-05-03T14:29:06.210Z,2.60
2019-05-03T14:31:34.607Z,2.37
2019-05-03T14:34:02.528Z,1.50
2019-05-03T14:36:30.397Z,2.00
2019-05-03T14:38:58.124Z,4.00
2019-05-03T14:41:25.974Z,1.97
2019-05-03T14:43:55.672Z,5.47
2019-05-03T14:46:32.861Z,1.73
2019-05-03T14:48:54.859Z,2.07
2019-05-03T14:51:22.579Z,1.80
2019-05-03T14:53:50.394Z,2.07
2019-05-03T14:56:27.298Z,1.60
2019-05-03T14:59:29.286Z,3.33
2019-05-03T15:02:09.274Z,1.53
2019-05-03T15:04:36.993Z,2.67
2019-05-03T15:07:06.105Z,3.07
2019-05-03T15:09:35.289Z,2.80
2019-05-03T15:12:05.178Z,4.72
2019-05-03T15:14:34.485Z,2.50
2019-05-03T15:17:02.323Z,2.83
2019-05-03T15:19:30.039Z,1.93
2019-05-03T15:21:57.773Z,2.87
2019-05-03T15:24:25.495Z,2.00
2019-05-03T15:26:55.249Z,3.90
2019-05-03T15:29:24.567Z,3.90
2019-05-03T15:31:52.420Z,2.87
2019-05-03T15:34:20.170Z,1.83
2019-05-03T15:36:47.877Z,2.00
2019-05-03T15:39:15.627Z,3.10
2019-05-03T15:41:44.947Z,4.17
2019-05-03T15:44:29.897Z,2.77
2019-05-03T15:47:17.458Z,2.47
2019-05-03T15:49:45.350Z,2.33
2019-05-03T15:52:15.148Z,7.07
2019-05-03T15:54:44.381Z,1.83
2019-05-03T15:57:12.193Z,1.93
2019-05-03T15:59:39.966Z,2.30
2019-05-03T16:02:07.678Z,3.77
2019-05-03T16:04:35.736Z,3.30
2019-05-03T16:07:04.909Z,2.17
2019-05-03T16:09:32.702Z,2.30
2019-05-03T16:12:01.024Z,2.17
2019-05-03T16:14:29.062Z,3.73
2019-05-03T16:16:56.739Z,3.00
2019-05-03T16:19:24.477Z,4.07
2019-05-03T16:21:54.382Z,2.67
2019-05-03T16:24:21.975Z,2.73
2019-05-03T16:27:07.799Z,4.73
2019-05-03T16:29:35.556Z,2.63
2019-05-03T16:32:05.241Z,2.73
2019-05-03T16:34:34.899Z,5.47
2019-05-03T16:37:04.371Z,2.10
2019-05-03T16:39:32.155Z,2.53
2019-05-03T16:41:59.876Z,4.73
2019-05-03T16:44:27.631Z,2.07
2019-05-03T16:46:55.438Z,4.33
2019-05-03T16:49:27.622Z,4.17
2019-05-03T16:52:05.664Z,6.10
2019-05-03T16:54:34.960Z,3.53
2019-05-03T16:57:03.485Z,4.13
2019-05-03T16:59:31.267Z,3.07
2019-05-03T17:01:59.259Z,2.97
2019-05-03T17:04:36.028Z,2.77
2019-05-03T17:07:24.636Z,3.80
2019-05-03T17:10:15.320Z,3.63
2019-05-03T17:12:43.256Z,4.43
2019-05-03T17:15:11.141Z,4.57
2019-05-03T17:17:38.910Z,2.97
2019-05-03T17:20:06.677Z,2.87
2019-05-03T17:22:34.574Z,3.07
2019-05-03T17:25:04.334Z,3.10
2019-05-03T17:27:31.999Z,2.50
2019-05-03T17:29:59.783Z,6.60
2019-05-03T17:32:27.521Z,2.73
2019-05-03T17:34:55.400Z,2.23
2019-05-03T17:37:25.462Z,2.13
2019-05-03T17:40:18.593Z,3.40
2019-05-03T17:43:17.570Z,3.43
2019-05-03T17:45:48.354Z,3.83
2019-05-03T17:48:16.348Z,3.77
2019-05-03T17:50:45.467Z,2.03
2019-05-03T17:53:31.305Z,2.80
2019-05-03T17:56:24.562Z,2.00
2019-05-03T17:58:55.635Z,2.13
2019-05-03T18:01:36.522Z,3.07
2019-05-03T18:04:26.972Z,5.17
2019-05-03T18:07:20.473Z,3.33
2019-05-03T18:09:48.794Z,3.07
2019-05-03T18:12:16.537Z,2.87
2019-05-03T18:14:45.044Z,3.37
2019-05-03T18:17:14.781Z,2.10
2019-05-03T18:19:44.703Z,2.93
2019-05-03T18:22:12.541Z,3.00
2019-05-03T18:24:40.567Z,2.60
2019-05-03T18:27:11.316Z,5.93
2019-05-03T18:29:39.262Z,2.63
2019-05-03T18:32:07.299Z,3.37
2019-05-03T18:34:35.390Z,7.00
2019-05-03T18:37:04.778Z,2.53
2019-05-03T18:39:34.564Z,2.63
2019-05-03T18:42:04.934Z,4.63
2019-05-03T18:44:44.906Z,4.00
2019-05-03T18:47:16.909Z,3.63
2019-05-03T18:49:44.848Z,8.37
2019-05-03T18:52:52.850Z,3.30
2019-05-03T18:55:31.946Z,4.97
2019-05-03T18:58:00.431Z,3.73
2019-05-03T19:00:29.565Z,3.90
2019-05-03T19:02:59.162Z,2.73
2019-05-03T19:05:31.609Z,5.53
2019-05-03T19:08:08.299Z,3.60
2019-05-03T19:10:56.619Z,3.10
2019-05-03T19:13:41.590Z,4.60
2019-05-03T19:16:37.397Z,5.07
2019-05-03T19:19:20.214Z,3.30
2019-05-03T19:21:56.137Z,3.47
2019-05-03T19:24:51.088Z,4.87
2019-05-03T19:27:30.290Z,3.43
2019-05-03T19:30:01.709Z,6.43
2019-05-03T19:32:30.044Z,3.87
2019-05-03T19:34:58.277Z,4.53
2019-05-03T19:37:26.356Z,8.27
2019-05-03T19:39:55.234Z,5.07
2019-05-03T19:42:24.838Z,7.57
2019-05-03T19:44:52.782Z,6.03
2019-05-03T19:47:20.509Z,5.53
2019-05-03T19:49:48.235Z,6.63
2019-05-03T19:52:18.273Z,5.77
2019-05-03T19:54:46.003Z,5.53
2019-05-03T19:57:15.529Z,6.80
2019-05-03T19:59:56.920Z,7.13
2019-05-03T20:02:35.098Z,6.03
2019-05-03T20:05:08.639Z,4.90
2019-05-03T20:07:57.082Z,4.03
2019-05-03T20:10:25.399Z,3.43
2019-05-03T20:12:53.381Z,4.97
2019-05-03T20:15:21.080Z,3.40
2019-05-03T20:17:59.294Z,6.33
2019-05-03T20:20:18.390Z,4.37
2019-05-03T20:22:47.771Z,6.37
2019-05-03T20:25:15.595Z,3.07
2019-05-03T20:27:44.533Z,6.23
2019-05-03T20:30:12.306Z,3.90
2019-05-03T20:32:40.142Z,9.50
2019-05-03T20:35:16.199Z,4.93
2019-05-03T20:37:37.443Z,2.93
2019-05-03T20:40:05.240Z,4.40
2019-05-03T20:42:51.108Z,3.63
2019-05-03T20:45:24.896Z,3.40
2019-05-03T20:47:55.409Z,7.33
2019-05-03T20:50:24.770Z,4.30
2019-05-03T20:52:54.823Z,5.67
2019-05-03T20:55:22.172Z,4.40
2019-05-03T20:57:50.026Z,4.50
2019-05-03T21:00:19.998Z,5.30
2019-05-03T21:02:53.850Z,4.03
2019-05-03T21:05:26.710Z,5.70
2019-05-03T21:07:46.930Z,4.00
2019-05-03T21:10:15.592Z,4.30
2019-05-03T21:12:43.592Z,4.00
2019-05-03T21:15:18.465Z,4.43
2019-05-03T21:18:04.938Z,5.30
2019-05-03T21:20:56.014Z,5.13
2019-05-03T21:23:25.091Z,6.20
2019-05-03T21:26:12.515Z,3.27
2019-05-03T21:28:36.325Z,4.13
2019-05-03T21:31:05.651Z,3.57
2019-05-03T21:33:35.315Z,2.83
2019-05-03T21:36:04.679Z,3.90
2019-05-03T21:38:32.573Z,3.00
2019-05-03T21:41:00.341Z,8.83
2019-05-03T21:43:28.046Z,3.63
2019-05-03T21:46:08.421Z,5.27
2019-05-03T21:49:14.901Z,4.80
2019-05-03T21:51:44.841Z,6.87
2019-05-03T21:54:12.337Z,3.37
2019-05-03T21:56:40.093Z,3.00
2019-05-03T21:59:07.809Z,3.80
2019-05-03T22:01:37.641Z,5.63
2019-05-03T22:04:05.423Z,3.47
2019-05-03T22:06:34.933Z,3.03
2019-05-03T22:09:04.515Z,3.50
2019-05-03T22:11:32.442Z,3.10
2019-05-03T22:14:02.077Z,3.33
2019-05-03T22:16:51.846Z,3.43
2019-05-03T22:19:19.704Z,5.40
2019-05-03T22:22:14.788Z,3.80
2019-05-03T22:24:48.517Z,3.63
2019-05-03T22:27:17.258Z,3.53
2019-05-03T22:29:45.084Z,4.30
2019-05-03T22:32:12.788Z,4.30
2019-05-03T22:34:40.728Z,4.53
2019-05-03T22:37:08.433Z,4.97
2019-05-03T22:39:36.216Z,6.87
2019-05-03T22:42:04.567Z,3.43
2019-05-03T22:44:32.385Z,3.77
2019-05-03T22:47:00.091Z,5.90
2019-05-03T22:49:27.945Z,6.83
2019-05-03T22:51:55.662Z,4.13
2019-05-03T22:54:24.573Z,5.27
2019-05-03T22:56:52.564Z,8.93
2019-05-03T22:59:20.329Z,4.07
2019-05-03T23:01:48.026Z,2.90
2019-05-03T23:04:16.041Z,4.07
2019-05-03T23:06:46.724Z,4.43
2019-05-03T23:09:15.659Z,5.77
2019-05-03T23:11:44.714Z,3.73
2019-05-03T23:14:14.844Z,3.13
2019-05-03T23:16:44.595Z,4.40
2019-05-03T23:19:12.015Z,3.93
2019-05-03T23:22:04.851Z,4.30
2019-05-03T23:24:32.690Z,4.97
2019-05-03T23:27:00.409Z,7.20
2019-05-03T23:29:28.236Z,4.00
2019-05-03T23:31:55.981Z,5.17
2019-05-03T23:34:24.736Z,5.07
2019-05-03T23:36:52.513Z,3.17
2019-05-03T23:39:20.341Z,4.90
2019-05-03T23:41:48.042Z,6.93
2019-05-03T23:44:15.749Z,4.27
2019-05-03T23:46:54.567Z,3.77
2019-05-03T23:49:22.457Z,4.07
2019-05-03T23:51:51.722Z,3.63
2019-05-03T23:54:19.445Z,5.37
2019-05-03T23:56:47.221Z,4.63
2019-05-03T23:59:15.082Z,3.30
